sensor_id;sensor_type;location;lat;lon;timestamp;pressure;altitude;pressure_sealevel;temperature;humidity
82728;BME280;72459;50.110;8.750;2023-11-22T00:01:15;101389.59;;;4.00;81.68
82728;BME280;72459;50.110;8.750;2023-11-22T00:03:42;101392.72;;;3.96;85.41
82728;BME280;72459;50.110;8.750;2023-11-22T00:06:07;101402.66;;;3.90;80.60
82728;BME280;72459;50.110;8.750;2023-11-22T00:08:35;101400.06;;;3.90;86.68
82728;BME280;72459;50.110;8.750;2023-11-22T00:11:01;101410.97;;;3.86;87.31
82728;BME280;72459;50.110;8.750;2023-11-22T00:13:26;101406.41;;;3.83;87.47
82728;BME280;72459;50.110;8.750;2023-11-22T00:15:52;101402.91;;;3.83;87.00
82728;BME280;72459;50.110;8.750;2023-11-22T00:18:17;101413.97;;;3.80;84.99
82728;BME280;72459;50.110;8.750;2023-11-22T00:20:42;101422.44;;;3.78;87.56
82728;BME280;72459;50.110;8.750;2023-11-22T00:23:08;101424.78;;;3.75;85.57
82728;BME280;72459;50.110;8.750;2023-11-22T00:25:33;101428.72;;;3.70;85.99
82728;BME280;72459;50.110;8.750;2023-11-22T00:27:58;101427.16;;;3.72;86.69
82728;BME280;72459;50.110;8.750;2023-11-22T00:30:24;101430.16;;;3.66;85.47
82728;BME280;72459;50.110;8.750;2023-11-22T00:32:49;101430.44;;;3.59;86.47
82728;BME280;72459;50.110;8.750;2023-11-22T00:35:15;101442.00;;;3.63;83.95
82728;BME280;72459;50.110;8.750;2023-11-22T00:37:40;101439.81;;;3.57;84.88
82728;BME280;72459;50.110;8.750;2023-11-22T00:40:06;101451.91;;;3.57;86.38
82728;BME280;72459;50.110;8.750;2023-11-22T00:42:41;101448.28;;;3.55;87.28
82728;BME280;72459;50.110;8.750;2023-11-22T00:45:10;101452.56;;;3.54;86.95
82728;BME280;72459;50.110;8.750;2023-11-22T00:47:36;101452.97;;;3.48;88.15
82728;BME280;72459;50.110;8.750;2023-11-22T00:50:02;101452.72;;;3.45;87.05
82728;BME280;72459;50.110;8.750;2023-11-22T00:52:30;101457.91;;;3.45;87.88
82728;BME280;72459;50.110;8.750;2023-11-22T00:54:55;101463.91;;;3.44;87.07
82728;BME280;72459;50.110;8.750;2023-11-22T00:57:21;101461.19;;;3.43;87.13
82728;BME280;72459;50.110;8.750;2023-11-22T00:59:46;101451.19;;;3.37;87.77
82728;BME280;72459;50.110;8.750;2023-11-22T01:02:11;101451.97;;;3.36;88.17
82728;BME280;72459;50.110;8.750;2023-11-22T01:04:37;101455.34;;;3.35;87.09
82728;BME280;72459;50.110;8.750;2023-11-22T01:07:03;101463.00;;;3.34;86.70
82728;BME280;72459;50.110;8.750;2023-11-22T01:09:32;101464.31;;;3.29;87.40
82728;BME280;72459;50.110;8.750;2023-11-22T01:11:58;101467.59;;;3.26;88.16
82728;BME280;72459;50.110;8.750;2023-11-22T01:14:23;101471.72;;;3.24;86.88
82728;BME280;72459;50.110;8.750;2023-11-22T01:16:49;101468.38;;;3.25;86.79
82728;BME280;72459;50.110;8.750;2023-11-22T01:19:14;101461.97;;;3.22;87.99
82728;BME280;72459;50.110;8.750;2023-11-22T01:21:40;101457.69;;;3.22;87.54
82728;BME280;72459;50.110;8.750;2023-11-22T01:24:06;101463.66;;;3.21;86.37
82728;BME280;72459;50.110;8.750;2023-11-22T01:26:31;101465.75;;;3.15;87.19
82728;BME280;72459;50.110;8.750;2023-11-22T01:28:56;101472.50;;;3.13;86.93
82728;BME280;72459;50.110;8.750;2023-11-22T01:31:22;101471.47;;;3.11;85.08
82728;BME280;72459;50.110;8.750;2023-11-22T01:33:48;101473.03;;;3.09;87.43
82728;BME280;72459;50.110;8.750;2023-11-22T01:36:15;101481.47;;;3.06;86.53
82728;BME280;72459;50.110;8.750;2023-11-22T01:38:43;101478.75;;;3.05;87.49
82728;BME280;72459;50.110;8.750;2023-11-22T01:41:09;101472.91;;;3.07;86.83
82728;BME280;72459;50.110;8.750;2023-11-22T01:43:38;101489.13;;;3.05;87.05
82728;BME280;72459;50.110;8.750;2023-11-22T01:46:05;101493.41;;;3.04;87.55
82728;BME280;72459;50.110;8.750;2023-11-22T01:48:30;101481.75;;;2.99;84.77
82728;BME280;72459;50.110;8.750;2023-11-22T01:50:57;101492.25;;;3.01;87.30
82728;BME280;72459;50.110;8.750;2023-11-22T01:53:23;101499.78;;;2.98;87.35
82728;BME280;72459;50.110;8.750;2023-11-22T01:55:49;101507.56;;;2.98;87.27
82728;BME280;72459;50.110;8.750;2023-11-22T01:58:15;101511.84;;;2.97;87.49
82728;BME280;72459;50.110;8.750;2023-11-22T02:00:50;101514.19;;;2.94;88.05
82728;BME280;72459;50.110;8.750;2023-11-22T02:03:17;101512.38;;;2.93;87.16
82728;BME280;72459;50.110;8.750;2023-11-22T02:05:43;101518.34;;;2.92;87.54
82728;BME280;72459;50.110;8.750;2023-11-22T02:08:10;101515.88;;;2.94;87.54
82728;BME280;72459;50.110;8.750;2023-11-22T02:10:36;101518.09;;;2.89;87.93
82728;BME280;72459;50.110;8.750;2023-11-22T02:13:05;101528.47;;;2.89;87.94
82728;BME280;72459;50.110;8.750;2023-11-22T02:15:35;101526.78;;;2.90;88.07
82728;BME280;72459;50.110;8.750;2023-11-22T02:18:02;101531.84;;;2.88;88.25
82728;BME280;72459;50.110;8.750;2023-11-22T02:20:28;101537.94;;;2.89;87.91
82728;BME280;72459;50.110;8.750;2023-11-22T02:22:54;101547.16;;;2.85;87.69
82728;BME280;72459;50.110;8.750;2023-11-22T02:25:19;101535.75;;;2.83;88.19
82728;BME280;72459;50.110;8.750;2023-11-22T02:27:45;101534.69;;;2.81;88.15
82728;BME280;72459;50.110;8.750;2023-11-22T02:30:11;101536.91;;;2.86;87.42
82728;BME280;72459;50.110;8.750;2023-11-22T02:32:36;101542.34;;;2.79;87.38
82728;BME280;72459;50.110;8.750;2023-11-22T02:35:02;101551.56;;;2.76;88.13
82728;BME280;72459;50.110;8.750;2023-11-22T02:37:32;101546.25;;;2.74;87.18
82728;BME280;72459;50.110;8.750;2023-11-22T02:40:06;101542.47;;;2.71;87.47
82728;BME280;72459;50.110;8.750;2023-11-22T02:42:36;101540.00;;;2.72;87.80
82728;BME280;72459;50.110;8.750;2023-11-22T02:45:02;101538.19;;;2.71;85.85
82728;BME280;72459;50.110;8.750;2023-11-22T02:47:27;101534.28;;;2.66;86.40
82728;BME280;72459;50.110;8.750;2023-11-22T02:49:53;101523.00;;;2.66;86.51
82728;BME280;72459;50.110;8.750;2023-11-22T02:52:20;101512.50;;;2.64;87.47
82728;BME280;72459;50.110;8.750;2023-11-22T02:54:47;101517.56;;;2.63;86.95
82728;BME280;72459;50.110;8.750;2023-11-22T02:57:13;101520.78;;;2.60;87.49
82728;BME280;72459;50.110;8.750;2023-11-22T02:59:42;101516.06;;;2.56;86.51
82728;BME280;72459;50.110;8.750;2023-11-22T03:02:08;101516.22;;;2.58;87.13
82728;BME280;72459;50.110;8.750;2023-11-22T03:04:33;101513.09;;;2.51;87.87
82728;BME280;72459;50.110;8.750;2023-11-22T03:06:59;101521.78;;;2.52;86.68
82728;BME280;72459;50.110;8.750;2023-11-22T03:09:25;101526.84;;;2.50;87.58
82728;BME280;72459;50.110;8.750;2023-11-22T03:11:51;101533.56;;;2.48;88.02
82728;BME280;72459;50.110;8.750;2023-11-22T03:14:16;101550.97;;;2.49;88.32
82728;BME280;72459;50.110;8.750;2023-11-22T03:16:42;101550.69;;;2.46;86.63
82728;BME280;72459;50.110;8.750;2023-11-22T03:19:08;101555.25;;;2.49;87.33
82728;BME280;72459;50.110;8.750;2023-11-22T03:21:33;101563.81;;;2.48;86.79
82728;BME280;72459;50.110;8.750;2023-11-22T03:24:01;101568.06;;;2.47;87.14
82728;BME280;72459;50.110;8.750;2023-11-22T03:26:28;101564.44;;;2.45;87.78
82728;BME280;72459;50.110;8.750;2023-11-22T03:28:54;101568.72;;;2.45;85.21
82728;BME280;72459;50.110;8.750;2023-11-22T03:31:19;101575.47;;;2.43;87.73
82728;BME280;72459;50.110;8.750;2023-11-22T03:33:44;101579.75;;;2.42;88.04
82728;BME280;72459;50.110;8.750;2023-11-22T03:36:10;101578.84;;;2.42;87.39
82728;BME280;72459;50.110;8.750;2023-11-22T03:38:36;101588.03;;;2.38;88.20
82728;BME280;72459;50.110;8.750;2023-11-22T03:41:01;101574.94;;;2.37;87.36
82728;BME280;72459;50.110;8.750;2023-11-22T03:43:27;101590.47;;;2.37;87.68
82728;BME280;72459;50.110;8.750;2023-11-22T03:45:52;101583.84;;;2.30;87.82
82728;BME280;72459;50.110;8.750;2023-11-22T03:48:17;101587.34;;;2.31;88.07
82728;BME280;72459;50.110;8.750;2023-11-22T03:50:43;101590.72;;;2.30;86.48
82728;BME280;72459;50.110;8.750;2023-11-22T03:53:08;101596.69;;;2.29;87.51
82728;BME280;72459;50.110;8.750;2023-11-22T03:55:34;101606.16;;;2.28;87.62
82728;BME280;72459;50.110;8.750;2023-11-22T03:57:59;101619.75;;;2.26;87.50
82728;BME280;72459;50.110;8.750;2023-11-22T04:00:25;101628.44;;;2.26;85.70
82728;BME280;72459;50.110;8.750;2023-11-22T04:02:50;101624.94;;;2.26;87.22
82728;BME280;72459;50.110;8.750;2023-11-22T04:05:15;101629.72;;;2.21;87.53
82728;BME280;72459;50.110;8.750;2023-11-22T04:07:41;101642.53;;;2.19;86.89
82728;BME280;72459;50.110;8.750;2023-11-22T04:10:06;101646.53;;;2.16;87.52
82728;BME280;72459;50.110;8.750;2023-11-22T04:12:32;101657.69;;;2.15;85.25
82728;BME280;72459;50.110;8.750;2023-11-22T04:15:00;101660.91;;;2.12;84.07
82728;BME280;72459;50.110;8.750;2023-11-22T04:17:25;101667.00;;;2.13;86.86
82728;BME280;72459;50.110;8.750;2023-11-22T04:19:50;101671.00;;;2.09;86.48
82728;BME280;72459;50.110;8.750;2023-11-22T04:22:16;101666.72;;;2.10;86.15
82728;BME280;72459;50.110;8.750;2023-11-22T04:24:41;101680.81;;;2.03;87.15
82728;BME280;72459;50.110;8.750;2023-11-22T04:27:07;101685.72;;;2.00;86.21
82728;BME280;72459;50.110;8.750;2023-11-22T04:29:33;101690.00;;;2.00;87.25
82728;BME280;72459;50.110;8.750;2023-11-22T04:31:58;101682.09;;;1.98;87.52
82728;BME280;72459;50.110;8.750;2023-11-22T04:34:24;101691.53;;;1.98;86.18
82728;BME280;72459;50.110;8.750;2023-11-22T04:36:49;101681.19;;;1.98;86.80
82728;BME280;72459;50.110;8.750;2023-11-22T04:39:14;101699.31;;;1.98;86.74
82728;BME280;72459;50.110;8.750;2023-11-22T04:41:40;101689.09;;;1.99;86.41
82728;BME280;72459;50.110;8.750;2023-11-22T04:44:05;101699.19;;;1.96;87.21
82728;BME280;72459;50.110;8.750;2023-11-22T04:46:33;101705.72;;;1.92;87.70
82728;BME280;72459;50.110;8.750;2023-11-22T04:48:59;101692.34;;;1.88;87.48
82728;BME280;72459;50.110;8.750;2023-11-22T04:51:24;101691.03;;;1.83;85.42
82728;BME280;72459;50.110;8.750;2023-11-22T04:53:50;101697.97;;;1.92;87.00
82728;BME280;72459;50.110;8.750;2023-11-22T04:56:16;101692.63;;;1.91;86.91
82728;BME280;72459;50.110;8.750;2023-11-22T04:58:42;101691.41;;;1.96;85.49
82728;BME280;72459;50.110;8.750;2023-11-22T05:01:07;101693.66;;;2.02;86.60
82728;BME280;72459;50.110;8.750;2023-11-22T05:03:35;101694.91;;;1.97;86.80
82728;BME280;72459;50.110;8.750;2023-11-22T05:06:02;101703.28;;;1.94;87.26
82728;BME280;72459;50.110;8.750;2023-11-22T05:08:28;101701.94;;;1.89;86.46
82728;BME280;72459;50.110;8.750;2023-11-22T05:10:53;101708.31;;;1.92;86.38
82728;BME280;72459;50.110;8.750;2023-11-22T05:13:19;101706.84;;;1.86;84.16
82728;BME280;72459;50.110;8.750;2023-11-22T05:15:44;101713.56;;;1.84;86.90
82728;BME280;72459;50.110;8.750;2023-11-22T05:18:10;101712.38;;;1.80;85.19
82728;BME280;72459;50.110;8.750;2023-11-22T05:20:35;101727.66;;;1.77;83.91
82728;BME280;72459;50.110;8.750;2023-11-22T05:23:01;101732.50;;;1.83;86.20
82728;BME280;72459;50.110;8.750;2023-11-22T05:25:26;101735.84;;;1.82;87.21
82728;BME280;72459;50.110;8.750;2023-11-22T05:27:52;101732.63;;;1.84;86.40
82728;BME280;72459;50.110;8.750;2023-11-22T05:30:17;101737.66;;;1.83;87.31
82728;BME280;72459;50.110;8.750;2023-11-22T05:32:42;101730.19;;;1.86;83.09
82728;BME280;72459;50.110;8.750;2023-11-22T05:35:08;101737.19;;;1.87;87.67
82728;BME280;72459;50.110;8.750;2023-11-22T05:37:35;101740.69;;;1.87;86.56
82728;BME280;72459;50.110;8.750;2023-11-22T05:40:02;101742.38;;;1.87;87.16
82728;BME280;72459;50.110;8.750;2023-11-22T05:42:28;101752.25;;;1.91;87.61
82728;BME280;72459;50.110;8.750;2023-11-22T05:44:53;101745.84;;;1.96;87.16
82728;BME280;72459;50.110;8.750;2023-11-22T05:47:19;101747.94;;;2.00;84.89
82728;BME280;72459;50.110;8.750;2023-11-22T05:49:44;101749.84;;;2.11;86.24
82728;BME280;72459;50.110;8.750;2023-11-22T05:52:10;101750.75;;;2.12;83.87
82728;BME280;72459;50.110;8.750;2023-11-22T05:54:35;101756.09;;;2.13;86.17
82728;BME280;72459;50.110;8.750;2023-11-22T05:57:02;101756.28;;;2.06;87.09
82728;BME280;72459;50.110;8.750;2023-11-22T05:59:27;101755.31;;;1.96;87.26
82728;BME280;72459;50.110;8.750;2023-11-22T06:01:53;101767.22;;;1.85;85.88
82728;BME280;72459;50.110;8.750;2023-11-22T06:04:18;101775.78;;;1.84;85.77
82728;BME280;72459;50.110;8.750;2023-11-22T06:06:44;101775.69;;;1.74;84.34
82728;BME280;72459;50.110;8.750;2023-11-22T06:09:09;101778.00;;;1.71;86.47
82728;BME280;72459;50.110;8.750;2023-11-22T06:11:37;101776.78;;;1.67;87.44
82728;BME280;72459;50.110;8.750;2023-11-22T06:14:02;101787.50;;;1.62;86.14
82728;BME280;72459;50.110;8.750;2023-11-22T06:16:28;101788.13;;;1.59;87.74
82728;BME280;72459;50.110;8.750;2023-11-22T06:18:53;101791.03;;;1.53;87.72
82728;BME280;72459;50.110;8.750;2023-11-22T06:21:18;101801.09;;;1.50;87.78
82728;BME280;72459;50.110;8.750;2023-11-22T06:23:44;101802.34;;;1.45;85.50
82728;BME280;72459;50.110;8.750;2023-11-22T06:26:09;101811.66;;;1.43;86.88
82728;BME280;72459;50.110;8.750;2023-11-22T06:28:34;101819.91;;;1.39;87.48
82728;BME280;72459;50.110;8.750;2023-11-22T06:31:00;101821.56;;;1.39;88.17
82728;BME280;72459;50.110;8.750;2023-11-22T06:33:25;101821.44;;;1.37;86.26
82728;BME280;72459;50.110;8.750;2023-11-22T06:35:51;101826.31;;;1.34;85.81
82728;BME280;72459;50.110;8.750;2023-11-22T06:38:16;101836.97;;;1.37;87.93
82728;BME280;72459;50.110;8.750;2023-11-22T06:40:42;101835.00;;;1.35;87.40
82728;BME280;72459;50.110;8.750;2023-11-22T06:43:07;101843.81;;;1.37;87.50
82728;BME280;72459;50.110;8.750;2023-11-22T06:45:32;101839.09;;;1.41;87.50
82728;BME280;72459;50.110;8.750;2023-11-22T06:47:58;101849.44;;;1.41;84.96
82728;BME280;72459;50.110;8.750;2023-11-22T06:50:24;101839.84;;;1.40;84.75
82728;BME280;72459;50.110;8.750;2023-11-22T06:52:50;101841.38;;;1.38;83.55
82728;BME280;72459;50.110;8.750;2023-11-22T06:55:17;101847.00;;;1.43;85.85
82728;BME280;72459;50.110;8.750;2023-11-22T06:57:42;101841.50;;;1.48;86.81
82728;BME280;72459;50.110;8.750;2023-11-22T07:00:08;101844.84;;;1.47;84.33
82728;BME280;72459;50.110;8.750;2023-11-22T07:02:35;101839.50;;;1.54;87.07
82728;BME280;72459;50.110;8.750;2023-11-22T07:05:01;101844.50;;;1.62;86.99
82728;BME280;72459;50.110;8.750;2023-11-22T07:07:28;101850.44;;;1.61;85.08
82728;BME280;72459;50.110;8.750;2023-11-22T07:09:53;101849.19;;;1.66;86.40
82728;BME280;72459;50.110;8.750;2023-11-22T07:12:19;101853.13;;;1.71;83.21
82728;BME280;72459;50.110;8.750;2023-11-22T07:14:45;101858.31;;;1.71;84.94
82728;BME280;72459;50.110;8.750;2023-11-22T07:17:10;101856.03;;;1.74;86.00
82728;BME280;72459;50.110;8.750;2023-11-22T07:19:35;101859.19;;;1.80;86.30
82728;BME280;72459;50.110;8.750;2023-11-22T07:22:04;101869.16;;;1.67;84.39
82728;BME280;72459;50.110;8.750;2023-11-22T07:24:30;101865.19;;;1.70;82.78
82728;BME280;72459;50.110;8.750;2023-11-22T07:26:59;101869.75;;;1.73;84.96
82728;BME280;72459;50.110;8.750;2023-11-22T07:29:26;101869.72;;;1.81;86.75
82728;BME280;72459;50.110;8.750;2023-11-22T07:31:51;101866.34;;;1.82;84.72
82728;BME280;72459;50.110;8.750;2023-11-22T07:34:17;101871.06;;;1.86;85.69
82728;BME280;72459;50.110;8.750;2023-11-22T07:36:43;101874.38;;;1.94;86.72
82728;BME280;72459;50.110;8.750;2023-11-22T07:39:09;101879.41;;;1.92;85.60
82728;BME280;72459;50.110;8.750;2023-11-22T07:41:37;101881.56;;;1.88;86.38
82728;BME280;72459;50.110;8.750;2023-11-22T07:44:02;101881.28;;;1.85;86.14
82728;BME280;72459;50.110;8.750;2023-11-22T07:46:27;101878.22;;;1.89;86.00
82728;BME280;72459;50.110;8.750;2023-11-22T07:48:53;101879.00;;;1.79;83.83
82728;BME280;72459;50.110;8.750;2023-11-22T07:51:18;101879.41;;;1.92;86.64
82728;BME280;72459;50.110;8.750;2023-11-22T07:53:44;101867.22;;;1.91;83.95
82728;BME280;72459;50.110;8.750;2023-11-22T07:56:09;101862.66;;;1.98;83.14
82728;BME280;72459;50.110;8.750;2023-11-22T07:58:36;101868.88;;;2.00;81.65
82728;BME280;72459;50.110;8.750;2023-11-22T08:01:02;101865.91;;;2.14;86.11
82728;BME280;72459;50.110;8.750;2023-11-22T08:03:31;101868.94;;;2.18;83.38
82728;BME280;72459;50.110;8.750;2023-11-22T08:05:56;101874.25;;;2.20;84.83
82728;BME280;72459;50.110;8.750;2023-11-22T08:08:22;101870.75;;;2.19;85.02
82728;BME280;72459;50.110;8.750;2023-11-22T08:10:48;101863.41;;;2.24;79.53
82728;BME280;72459;50.110;8.750;2023-11-22T08:13:16;101871.28;;;2.34;82.33
82728;BME280;72459;50.110;8.750;2023-11-22T08:15:44;101866.09;;;2.53;85.39
82728;BME280;72459;50.110;8.750;2023-11-22T08:18:12;101868.97;;;2.56;85.27
82728;BME280;72459;50.110;8.750;2023-11-22T08:20:37;101873.25;;;2.55;85.96
82728;BME280;72459;50.110;8.750;2023-11-22T08:23:03;101879.13;;;2.44;79.79
82728;BME280;72459;50.110;8.750;2023-11-22T08:25:31;101882.63;;;2.45;84.32
82728;BME280;72459;50.110;8.750;2023-11-22T08:27:56;101887.97;;;2.46;83.73
82728;BME280;72459;50.110;8.750;2023-11-22T08:30:22;101879.28;;;2.46;85.66
82728;BME280;72459;50.110;8.750;2023-11-22T08:32:48;101873.59;;;2.50;83.52
82728;BME280;72459;50.110;8.750;2023-11-22T08:35:19;101869.88;;;2.57;84.54
82728;BME280;72459;50.110;8.750;2023-11-22T08:37:45;101876.31;;;2.60;83.39
82728;BME280;72459;50.110;8.750;2023-11-22T08:40:12;101882.53;;;2.62;84.54
82728;BME280;72459;50.110;8.750;2023-11-22T08:42:42;101881.34;;;2.77;84.60
82728;BME280;72459;50.110;8.750;2023-11-22T08:45:09;101887.75;;;2.81;84.99
82728;BME280;72459;50.110;8.750;2023-11-22T08:47:35;101887.16;;;2.94;85.77
82728;BME280;72459;50.110;8.750;2023-11-22T08:50:00;101887.88;;;2.82;81.72
82728;BME280;72459;50.110;8.750;2023-11-22T08:52:28;101885.84;;;2.89;84.03
82728;BME280;72459;50.110;8.750;2023-11-22T08:54:56;101888.94;;;2.84;80.11
82728;BME280;72459;50.110;8.750;2023-11-22T08:57:21;101892.09;;;2.91;84.50
82728;BME280;72459;50.110;8.750;2023-11-22T08:59:47;101902.97;;;2.86;81.84
82728;BME280;72459;50.110;8.750;2023-11-22T09:02:13;101903.25;;;2.90;84.62
82728;BME280;72459;50.110;8.750;2023-11-22T09:04:39;101915.53;;;2.82;77.94
82728;BME280;72459;50.110;8.750;2023-11-22T09:07:07;101913.63;;;2.90;83.88
82728;BME280;72459;50.110;8.750;2023-11-22T09:09:32;101912.09;;;2.92;84.52
82728;BME280;72459;50.110;8.750;2023-11-22T09:12:00;101910.53;;;2.94;82.96
82728;BME280;72459;50.110;8.750;2023-11-22T09:14:26;101912.56;;;3.06;84.49
82728;BME280;72459;50.110;8.750;2023-11-22T09:16:52;101900.69;;;3.18;83.58
82728;BME280;72459;50.110;8.750;2023-11-22T09:19:24;101903.09;;;3.26;82.56
82728;BME280;72459;50.110;8.750;2023-11-22T09:21:50;101895.22;;;3.34;83.54
82728;BME280;72459;50.110;8.750;2023-11-22T09:24:15;101904.34;;;3.39;84.34
82728;BME280;72459;50.110;8.750;2023-11-22T09:26:41;101902.28;;;3.45;83.85
82728;BME280;72459;50.110;8.750;2023-11-22T09:29:07;101915.69;;;3.50;83.44
82728;BME280;72459;50.110;8.750;2023-11-22T09:31:34;101916.72;;;3.52;83.70
82728;BME280;72459;50.110;8.750;2023-11-22T09:34:00;101917.28;;;3.58;84.31
82728;BME280;72459;50.110;8.750;2023-11-22T10:35:46;101957.31;;;3.60;76.11
82728;BME280;72459;50.110;8.750;2023-11-22T10:38:18;101959.31;;;3.73;82.68
82728;BME280;72459;50.110;8.750;2023-11-22T10:40:45;101952.06;;;3.79;79.84
82728;BME280;72459;50.110;8.750;2023-11-22T10:43:17;101945.91;;;3.68;77.58
82728;BME280;72459;50.110;8.750;2023-11-22T10:45:44;101952.47;;;3.83;81.34
82728;BME280;72459;50.110;8.750;2023-11-22T10:48:18;101960.13;;;3.82;80.02
82728;BME280;72459;50.110;8.750;2023-11-22T10:50:47;101972.09;;;3.80;79.05
82728;BME280;72459;50.110;8.750;2023-11-22T10:53:16;101967.25;;;3.74;79.54
82728;BME280;72459;50.110;8.750;2023-11-22T10:55:45;101979.16;;;3.62;79.15
82728;BME280;72459;50.110;8.750;2023-11-22T10:58:15;101989.25;;;3.78;83.35
82728;BME280;72459;50.110;8.750;2023-11-22T11:00:42;101986.88;;;3.71;82.25
82728;BME280;72459;50.110;8.750;2023-11-22T11:03:17;101986.50;;;3.76;82.05
82728;BME280;72459;50.110;8.750;2023-11-22T11:05:50;101984.81;;;3.77;79.90
82728;BME280;72459;50.110;8.750;2023-11-22T11:08:17;101987.28;;;3.75;82.44
82728;BME280;72459;50.110;8.750;2023-11-22T11:10:45;101996.03;;;3.86;80.87
82728;BME280;72459;50.110;8.750;2023-11-22T11:13:11;102006.63;;;3.69;80.02
82728;BME280;72459;50.110;8.750;2023-11-22T11:15:39;102006.34;;;3.66;80.44
82728;BME280;72459;50.110;8.750;2023-11-22T11:18:07;102011.31;;;3.73;80.07
82728;BME280;72459;50.110;8.750;2023-11-22T11:21:07;102017.06;;;3.79;80.64
82728;BME280;72459;50.110;8.750;2023-11-22T11:23:33;102006.56;;;3.88;83.54
82728;BME280;72459;50.110;8.750;2023-11-22T11:26:08;102016.19;;;3.89;80.88
82728;BME280;72459;50.110;8.750;2023-11-22T11:28:42;102010.91;;;3.68;75.78
82728;BME280;72459;50.110;8.750;2023-11-22T11:31:09;102012.78;;;3.79;81.86
82728;BME280;72459;50.110;8.750;2023-11-22T11:33:36;102021.25;;;3.87;82.66
82728;BME280;72459;50.110;8.750;2023-11-22T11:36:26;102020.06;;;3.83;81.41
82728;BME280;72459;50.110;8.750;2023-11-22T11:38:55;102020.34;;;3.87;79.70
82728;BME280;72459;50.110;8.750;2023-11-22T11:41:26;102017.88;;;3.88;80.43
82728;BME280;72459;50.110;8.750;2023-11-22T11:43:52;102024.59;;;3.95;80.31
82728;BME280;72459;50.110;8.750;2023-11-22T11:46:18;102030.06;;;3.98;81.29
82728;BME280;72459;50.110;8.750;2023-11-22T11:48:50;102040.06;;;3.93;74.89
82728;BME280;72459;50.110;8.750;2023-11-22T11:51:18;102035.19;;;4.17;82.51
82728;BME280;72459;50.110;8.750;2023-11-22T11:53:45;102032.22;;;4.22;82.10
82728;BME280;72459;50.110;8.750;2023-11-22T11:56:11;102026.75;;;4.19;79.83
82728;BME280;72459;50.110;8.750;2023-11-22T11:58:37;102016.81;;;4.05;77.67
82728;BME280;72459;50.110;8.750;2023-11-22T12:01:04;102007.38;;;4.26;82.18
82728;BME280;72459;50.110;8.750;2023-11-22T12:03:30;102008.03;;;4.23;80.07
82728;BME280;72459;50.110;8.750;2023-11-22T12:05:56;102008.69;;;4.31;83.21
82728;BME280;72459;50.110;8.750;2023-11-22T12:08:21;102009.25;;;4.37;82.54
82728;BME280;72459;50.110;8.750;2023-11-22T12:10:47;101991.56;;;4.53;83.80
82728;BME280;72459;50.110;8.750;2023-11-22T12:13:20;101984.59;;;4.62;83.36
82728;BME280;72459;50.110;8.750;2023-11-22T12:15:47;101984.06;;;4.66;83.32
82728;BME280;72459;50.110;8.750;2023-11-22T12:18:12;101983.41;;;4.79;83.79
82728;BME280;72459;50.110;8.750;2023-11-22T12:20:38;101984.97;;;4.77;74.88
82728;BME280;72459;50.110;8.750;2023-11-22T12:23:04;101964.41;;;4.80;79.50
82728;BME280;72459;50.110;8.750;2023-11-22T12:25:30;101967.66;;;4.77;77.17
82728;BME280;72459;50.110;8.750;2023-11-22T12:27:56;101973.34;;;4.53;69.63
82728;BME280;72459;50.110;8.750;2023-11-22T12:30:34;101984.31;;;4.69;76.15
82728;BME280;72459;50.110;8.750;2023-11-22T12:33:10;101985.09;;;4.78;83.62
82728;BME280;72459;50.110;8.750;2023-11-22T12:35:38;101976.50;;;4.59;82.82
82728;BME280;72459;50.110;8.750;2023-11-22T12:38:05;101973.59;;;4.46;81.73
82728;BME280;72459;50.110;8.750;2023-11-22T12:40:32;101969.81;;;4.42;79.67
82728;BME280;72459;50.110;8.750;2023-11-22T12:42:59;101981.47;;;4.66;83.83
82728;BME280;72459;50.110;8.750;2023-11-22T12:45:27;101983.00;;;4.64;81.95
82728;BME280;72459;50.110;8.750;2023-11-22T12:47:54;101980.41;;;4.74;83.32
82728;BME280;72459;50.110;8.750;2023-11-22T12:50:34;101985.88;;;4.67;81.21
82728;BME280;72459;50.110;8.750;2023-11-22T12:53:16;101997.88;;;4.75;82.99
82728;BME280;72459;50.110;8.750;2023-11-22T12:55:44;101987.25;;;4.43;77.55
82728;BME280;72459;50.110;8.750;2023-11-22T12:58:11;101987.91;;;4.41;76.81
82728;BME280;72459;50.110;8.750;2023-11-22T13:00:41;101987.91;;;4.41;82.00
82728;BME280;72459;50.110;8.750;2023-11-22T13:03:07;101988.47;;;4.57;83.24
82728;BME280;72459;50.110;8.750;2023-11-22T13:05:33;101980.28;;;4.73;83.38
82728;BME280;72459;50.110;8.750;2023-11-22T13:07:59;101984.06;;;4.66;82.63
82728;BME280;72459;50.110;8.750;2023-11-22T13:10:24;101973.91;;;4.59;73.96
82728;BME280;72459;50.110;8.750;2023-11-22T13:12:52;101965.84;;;4.76;84.11
82728;BME280;72459;50.110;8.750;2023-11-22T13:15:20;101953.59;;;4.75;83.31
82728;BME280;72459;50.110;8.750;2023-11-22T13:17:46;101945.53;;;4.72;79.04
82728;BME280;72459;50.110;8.750;2023-11-22T13:20:13;101941.47;;;4.86;80.39
82728;BME280;72459;50.110;8.750;2023-11-22T13:22:40;101937.97;;;4.86;82.69
82728;BME280;72459;50.110;8.750;2023-11-22T13:25:10;101932.63;;;4.64;72.83
82728;BME280;72459;50.110;8.750;2023-11-22T13:27:36;101927.81;;;4.68;83.03
82728;BME280;72459;50.110;8.750;2023-11-22T13:30:03;101917.91;;;4.74;81.42
82728;BME280;72459;50.110;8.750;2023-11-22T13:32:30;101915.31;;;4.85;82.78
82728;BME280;72459;50.110;8.750;2023-11-22T13:34:55;101910.06;;;4.95;84.36
82728;BME280;72459;50.110;8.750;2023-11-22T13:37:25;101912.06;;;4.77;79.96
82728;BME280;72459;50.110;8.750;2023-11-22T13:39:50;101913.88;;;4.78;83.13
82728;BME280;72459;50.110;8.750;2023-11-22T13:42:16;101906.69;;;4.86;82.66
82728;BME280;72459;50.110;8.750;2023-11-22T13:44:42;101911.66;;;4.72;83.16
82728;BME280;72459;50.110;8.750;2023-11-22T13:47:09;101917.53;;;4.70;83.55
82728;BME280;72459;50.110;8.750;2023-11-22T13:49:34;101917.00;;;4.74;84.04
82728;BME280;72459;50.110;8.750;2023-11-22T13:52:02;101909.06;;;4.72;83.55
82728;BME280;72459;50.110;8.750;2023-11-22T13:54:27;101917.53;;;4.60;82.46
82728;BME280;72459;50.110;8.750;2023-11-22T13:56:53;101928.41;;;4.35;73.32